Overview Statistics Trail Chart Weather Telemetry Raw packets
 

This is the latest recevied weather packets stored in our database for station/object Ostrach. If no packets are shown the sender has not sent any weather packets the latest 10 day(s).

<< 8 9 10 11 12 13 14 >>
Time Temp. Humidity Pressure Rain* Wind** Luminosity Snow
1788269530 24.44° C 48% 1018 hPa 0 mm - - -
1788267730 24.44° C 48% 1018.3 hPa 0 mm - - -
1788265930 23.89° C 51% 1018.6 hPa 0 mm - - -
1788264131 24.44° C 51% 1018.6 hPa 0 mm - - -
1788262331 23.89° C 51% 1018.8 hPa 0 mm - - -
1788260531 21.67° C 55% 1018.9 hPa 0 mm - - -
1788258730 22.22° C 52% 1019 hPa 0 mm - - -
1788256930 22.78° C 54% 1019.1 hPa 0 mm - - -
1788255130 22.22° C 55% 1019.3 hPa 0 mm - - -
1788253331 21.67° C 61% 1019.3 hPa 0 mm - - -
1788251530 20.56° C 67% 1019.3 hPa 0 mm - - -
1788249730 18.33° C 71% 1019.3 hPa 0 mm - - -
1788247930 18.33° C 74% 1019.1 hPa 0 mm - - -
1788246130 15.56° C 82% 1019 hPa 0 mm - - -
1788244330 18.89° C 69% 1014.4 hPa 0 mm - - -
1788242531 18.89° C 69% 1014.4 hPa 0 mm - - -
1788240729 18.89° C 69% 1014.4 hPa 0 mm - - -
1788238929 18.89° C 69% 1014.4 hPa 0 mm - - -
1788237130 18.89° C 69% 1014.4 hPa 0 mm - - -
1788235330 18.89° C 69% 1014.4 hPa 0 mm - - -
1788233529 18.89° C 69% 1014.4 hPa 0 mm - - -
1788231729 18.89° C 69% 1014.4 hPa 0 mm - - -
1788229930 18.89° C 69% 1014.4 hPa 0 mm - - -
1788228129 18.89° C 69% 1014.4 hPa 0 mm - - -
1788226329 18.89° C 69% 1014.4 hPa 0 mm - - -

* Rain since midnight (hover to see other rain measurements)
** Current wind speed in m/s (hover to see current wind gust speed)